createdAt,value
2023-04-16T00:01:32.987Z,69.20
2023-04-16T00:04:01.796Z,68.60
2023-04-16T00:06:31.929Z,68.00
2023-04-16T00:09:00.281Z,67.40
2023-04-16T00:11:28.960Z,66.70
2023-04-16T00:13:59.771Z,67.10
2023-04-16T00:16:28.550Z,68.40
2023-04-16T00:18:58.610Z,65.40
2023-04-16T00:21:27.614Z,65.00
2023-04-16T00:23:56.105Z,63.40
2023-04-16T00:26:24.720Z,62.90
2023-04-16T00:28:54.790Z,63.80
2023-04-16T00:31:28.771Z,65.40
2023-04-16T00:34:00.073Z,65.90
2023-04-16T00:36:29.628Z,66.50
2023-04-16T00:38:58.446Z,65.80
2023-04-16T00:41:27.665Z,65.10
2023-04-16T00:43:56.094Z,63.80
2023-04-16T00:46:26.197Z,63.90
2023-04-16T00:48:56.037Z,65.00
2023-04-16T00:51:27.145Z,65.20
2023-04-16T00:53:56.448Z,65.80
2023-04-16T00:56:26.794Z,65.70
2023-04-16T00:58:57.494Z,65.20
2023-04-16T01:01:26.357Z,65.70
2023-04-16T01:03:56.067Z,65.70
2023-04-16T01:06:26.073Z,64.10
2023-04-16T01:08:54.434Z,63.50
2023-04-16T01:11:22.790Z,61.60
2023-04-16T01:13:51.258Z,63.10
2023-04-16T01:16:20.894Z,65.60
2023-04-16T01:18:49.221Z,65.10
2023-04-16T01:21:21.114Z,64.20
2023-04-16T01:23:49.653Z,63.20
2023-04-16T01:26:19.319Z,63.20
2023-04-16T01:28:47.899Z,61.50
2023-04-16T01:31:16.440Z,61.70
2023-04-16T01:34:20.017Z,61.10
2023-04-16T01:36:49.911Z,61.00
2023-04-16T01:39:19.675Z,61.60
2023-04-16T01:41:49.269Z,62.30
2023-04-16T01:44:17.658Z,62.80
2023-04-16T01:46:46.992Z,63.00
2023-04-16T01:49:16.708Z,63.60
2023-04-16T01:51:46.627Z,63.60
2023-04-16T01:54:16.603Z,62.90
2023-04-16T01:56:45.096Z,62.80
2023-04-16T01:59:16.579Z,62.50
2023-04-16T02:01:45.186Z,63.60
2023-04-16T02:04:13.950Z,65.80
2023-04-16T02:06:42.370Z,67.80
2023-04-16T02:09:10.901Z,68.90
2023-04-16T02:11:42.662Z,67.70
2023-04-16T02:14:11.072Z,68.70
2023-04-16T02:16:49.525Z,69.40
2023-04-16T02:19:50.946Z,67.80
2023-04-16T02:22:22.396Z,67.00
2023-04-16T02:24:54.378Z,65.00
2023-04-16T02:27:29.685Z,64.90
2023-04-16T02:30:13.600Z,64.10
2023-04-16T02:32:44.847Z,62.90
2023-04-16T02:35:15.924Z,63.70
2023-04-16T02:37:44.420Z,64.50
2023-04-16T02:40:13.398Z,64.90
2023-04-16T02:42:43.182Z,64.40
2023-04-16T02:45:12.676Z,64.60
2023-04-16T02:47:41.043Z,65.20
2023-04-16T02:50:10.560Z,65.90
2023-04-16T02:52:39.032Z,66.30
2023-04-16T02:55:08.297Z,64.70
2023-04-16T02:57:36.733Z,62.70
2023-04-16T03:00:07.781Z,63.80
2023-04-16T03:02:36.668Z,65.30
2023-04-16T03:05:05.733Z,66.40
2023-04-16T03:07:34.011Z,65.60
2023-04-16T03:10:02.398Z,67.00
2023-04-16T03:12:30.820Z,67.70
2023-04-16T03:14:59.361Z,68.80
2023-04-16T03:17:29.396Z,69.80
2023-04-16T03:19:57.813Z,67.50
2023-04-16T03:22:26.236Z,66.40
2023-04-16T03:24:54.870Z,67.20
2023-04-16T03:27:23.214Z,68.10
2023-04-16T03:29:51.890Z,69.20
2023-04-16T03:32:20.595Z,70.00
2023-04-16T03:34:50.361Z,68.10
2023-04-16T03:37:18.850Z,67.30
2023-04-16T03:39:48.058Z,67.50
2023-04-16T03:42:16.975Z,67.60
2023-04-16T03:44:45.767Z,68.10
2023-04-16T03:47:16.081Z,65.80
2023-04-16T03:49:45.853Z,65.60
2023-04-16T03:52:16.622Z,64.40
2023-04-16T03:54:45.061Z,62.80
2023-04-16T03:57:27.958Z,64.10
2023-04-16T04:00:02.470Z,65.60
2023-04-16T04:02:42.815Z,66.70
2023-04-16T04:05:19.706Z,66.30
2023-04-16T04:07:50.550Z,66.60
2023-04-16T04:10:18.995Z,65.60
2023-04-16T04:12:47.443Z,66.60
2023-04-16T04:15:15.940Z,68.30
2023-04-16T04:17:44.595Z,67.60
2023-04-16T04:20:14.140Z,67.70
2023-04-16T04:22:46.407Z,67.70
2023-04-16T04:25:17.411Z,67.60
2023-04-16T04:27:45.758Z,67.90
2023-04-16T04:30:14.677Z,70.70
2023-04-16T04:32:43.817Z,71.70
2023-04-16T04:35:12.754Z,71.60
2023-04-16T04:37:41.109Z,71.90
2023-04-16T04:40:18.193Z,72.00
2023-04-16T04:42:48.031Z,73.50
2023-04-16T04:45:17.230Z,72.70
2023-04-16T04:47:47.158Z,71.60
2023-04-16T04:50:15.856Z,71.10
2023-04-16T04:52:44.341Z,73.00
2023-04-16T04:55:14.123Z,72.90
2023-04-16T04:57:44.250Z,72.30
2023-04-16T05:00:13.267Z,73.80
2023-04-16T05:02:52.103Z,73.30
2023-04-16T05:05:20.889Z,74.10
2023-04-16T05:07:49.327Z,75.10
2023-04-16T05:10:17.896Z,74.50
2023-04-16T05:12:49.413Z,74.70
2023-04-16T05:15:18.029Z,74.60
2023-04-16T05:17:46.603Z,75.30
2023-04-16T05:20:15.393Z,74.80
2023-04-16T05:22:44.042Z,74.50
2023-04-16T05:25:12.427Z,74.50
2023-04-16T05:27:41.010Z,72.10
2023-04-16T05:30:11.869Z,71.50
2023-04-16T05:32:41.755Z,71.00
2023-04-16T05:35:11.074Z,71.90
2023-04-16T05:37:39.457Z,71.60
2023-04-16T05:40:11.542Z,72.00
2023-04-16T05:42:39.855Z,71.10
2023-04-16T05:45:10.733Z,69.10
2023-04-16T05:47:42.763Z,70.50
2023-04-16T05:50:12.045Z,70.30
2023-04-16T05:52:40.694Z,69.00
2023-04-16T05:55:10.935Z,67.60
2023-04-16T05:57:39.871Z,67.60
2023-04-16T06:00:10.889Z,67.80
2023-04-16T06:02:42.449Z,67.70
2023-04-16T06:05:11.256Z,67.60
2023-04-16T06:07:40.185Z,69.10
2023-04-16T06:10:09.214Z,69.00
2023-04-16T06:12:37.753Z,69.20
2023-04-16T06:15:10.830Z,68.10
2023-04-16T06:17:39.167Z,67.70
2023-04-16T06:20:09.268Z,66.80
2023-04-16T06:22:40.385Z,66.40
2023-04-16T06:25:09.713Z,64.20
2023-04-16T06:27:38.380Z,62.80
2023-04-16T06:30:12.872Z,60.00
2023-04-16T06:32:42.003Z,63.50
2023-04-16T06:35:11.011Z,60.60
2023-04-16T06:37:39.415Z,61.70
2023-04-16T06:40:08.938Z,62.20
2023-04-16T06:42:37.715Z,63.60
2023-04-16T06:45:07.076Z,61.40
2023-04-16T06:47:37.030Z,62.70
2023-04-16T06:50:06.052Z,62.90
2023-04-16T06:52:34.725Z,62.00
2023-04-16T06:55:07.219Z,61.80
2023-04-16T06:57:37.348Z,62.90
2023-04-16T07:00:07.085Z,62.40
2023-04-16T07:02:36.949Z,61.40
2023-04-16T07:05:06.323Z,59.70
2023-04-16T07:07:35.048Z,58.00
2023-04-16T07:10:03.892Z,56.80
2023-04-16T07:12:32.623Z,56.00
2023-04-16T07:15:01.138Z,57.70
2023-04-16T07:17:29.473Z,56.10
2023-04-16T07:19:59.318Z,57.00
2023-04-16T07:22:28.093Z,56.60
2023-04-16T07:24:56.585Z,54.80
2023-04-16T07:27:25.211Z,57.80
2023-04-16T07:30:17.138Z,58.40
2023-04-16T07:32:47.164Z,57.70
2023-04-16T07:35:18.428Z,58.50
2023-04-16T07:37:46.755Z,57.30
2023-04-16T07:40:15.273Z,58.30
2023-04-16T07:42:44.774Z,58.10
2023-04-16T07:45:13.283Z,57.80
2023-04-16T07:47:41.735Z,60.30
2023-04-16T07:50:11.364Z,62.10
2023-04-16T07:52:42.477Z,61.60
2023-04-16T07:55:11.029Z,61.10
2023-04-16T07:57:39.447Z,62.90
2023-04-16T08:00:09.271Z,61.10
2023-04-16T08:02:45.768Z,62.20
2023-04-16T08:05:14.584Z,61.90
2023-04-16T08:07:44.495Z,63.00
2023-04-16T08:10:14.883Z,62.30
2023-04-16T08:12:43.545Z,63.80
2023-04-16T08:15:12.400Z,63.80
2023-04-16T08:17:40.791Z,63.20
2023-04-16T08:20:12.775Z,63.20
2023-04-16T08:22:44.212Z,63.10
2023-04-16T08:25:13.062Z,63.00
2023-04-16T08:27:41.972Z,63.20
2023-04-16T08:30:10.617Z,64.80
2023-04-16T08:32:39.101Z,63.80
2023-04-16T08:35:08.303Z,64.60
2023-04-16T08:37:36.752Z,62.70
2023-04-16T08:40:08.098Z,63.80
2023-04-16T08:42:41.737Z,63.10
2023-04-16T08:45:16.963Z,63.50
2023-04-16T08:47:49.213Z,63.10
2023-04-16T08:50:19.471Z,62.70
2023-04-16T08:52:52.948Z,63.70
2023-04-16T08:55:26.601Z,64.70
2023-04-16T08:57:59.161Z,64.10
2023-04-16T09:00:29.577Z,64.50
2023-04-16T09:02:58.085Z,63.30
2023-04-16T09:05:28.856Z,64.00
2023-04-16T09:07:58.145Z,63.80
2023-04-16T09:10:29.373Z,63.00
2023-04-16T09:12:58.628Z,62.70
2023-04-16T09:15:27.434Z,61.90
2023-04-16T09:17:57.769Z,61.10
2023-04-16T09:20:26.674Z,61.00
2023-04-16T09:22:57.069Z,60.40
2023-04-16T09:25:28.194Z,59.20
2023-04-16T09:27:57.184Z,60.20
2023-04-16T09:30:27.322Z,61.80
2023-04-16T09:33:16.850Z,61.70
2023-04-16T09:35:48.891Z,60.30
2023-04-16T09:38:18.050Z,61.70
2023-04-16T09:40:49.611Z,62.90
2023-04-16T09:43:19.878Z,62.90
2023-04-16T09:45:52.333Z,62.60
2023-04-16T09:48:31.381Z,63.00
2023-04-16T09:51:00.516Z,64.20
2023-04-16T09:53:30.332Z,65.00
2023-04-16T09:56:02.510Z,65.30
2023-04-16T09:58:31.695Z,66.20
2023-04-16T10:01:03.265Z,66.90
2023-04-16T10:03:32.893Z,65.40
2023-04-16T10:06:03.167Z,66.20
2023-04-16T10:08:31.860Z,66.10
2023-04-16T10:11:04.451Z,65.80
2023-04-16T10:13:34.109Z,67.20
2023-04-16T10:16:04.144Z,67.90
2023-04-16T10:18:34.356Z,65.60
2023-04-16T10:21:03.815Z,67.50
2023-04-16T10:23:33.099Z,66.60
2023-04-16T10:26:04.507Z,68.00
2023-04-16T10:28:35.640Z,68.00
2023-04-16T10:31:06.118Z,68.20
2023-04-16T10:33:37.155Z,69.60
2023-04-16T10:36:11.144Z,70.60
2023-04-16T10:38:42.034Z,72.50
2023-04-16T10:41:12.205Z,70.90
2023-04-16T10:43:42.856Z,72.30
2023-04-16T10:46:22.158Z,74.40
2023-04-16T10:48:52.385Z,75.30
2023-04-16T10:51:31.628Z,76.90
2023-04-16T10:54:06.358Z,76.40
2023-04-16T10:56:37.620Z,78.00
2023-04-16T10:59:07.038Z,78.80
2023-04-16T11:01:38.939Z,78.20
2023-04-16T11:04:29.958Z,78.50
2023-04-16T11:07:07.653Z,77.60
2023-04-16T11:09:57.672Z,78.30
2023-04-16T11:12:33.449Z,79.50
2023-04-16T11:15:03.546Z,81.60
2023-04-16T11:17:34.680Z,82.10
2023-04-16T11:20:03.837Z,82.00
2023-04-16T11:22:47.242Z,81.70
2023-04-16T11:25:22.397Z,81.30
2023-04-16T11:27:53.304Z,80.50
2023-04-16T11:30:31.174Z,81.80
2023-04-16T11:33:00.947Z,81.20
2023-04-16T11:35:29.658Z,84.70
2023-04-16T11:37:58.969Z,85.50
2023-04-16T11:40:32.159Z,87.20
2023-04-16T11:43:05.321Z,86.30
2023-04-16T11:45:35.153Z,86.40
2023-04-16T11:48:04.120Z,85.50
2023-04-16T11:50:34.187Z,83.60
2023-04-16T11:53:06.339Z,82.70
2023-04-16T11:55:44.702Z,83.50
2023-04-16T11:58:17.353Z,84.20
2023-04-16T12:00:46.495Z,85.00
2023-04-16T12:03:15.460Z,84.30
2023-04-16T12:05:44.275Z,83.50
2023-04-16T12:08:13.910Z,83.70
2023-04-16T12:10:55.641Z,82.60
2023-04-16T12:13:25.895Z,79.80
2023-04-16T12:15:56.097Z,77.90
2023-04-16T12:18:27.229Z,77.90
2023-04-16T12:20:56.921Z,78.50
2023-04-16T12:23:27.890Z,79.30
2023-04-16T12:25:59.941Z,81.50
2023-04-16T12:28:32.324Z,82.50
2023-04-16T12:31:02.467Z,82.60
2023-04-16T12:33:31.678Z,81.30
2023-04-16T12:36:01.672Z,79.90
2023-04-16T12:38:30.991Z,81.50
2023-04-16T12:41:02.395Z,80.50
2023-04-16T12:43:32.348Z,80.20
2023-04-16T12:46:04.018Z,81.00
2023-04-16T12:48:33.913Z,81.70
2023-04-16T12:51:02.698Z,81.10
2023-04-16T12:53:31.294Z,80.80
2023-04-16T12:56:00.008Z,81.40
2023-04-16T12:58:28.735Z,80.80
2023-04-16T13:00:58.690Z,80.40
2023-04-16T13:03:27.430Z,79.00
2023-04-16T13:05:56.969Z,78.80
2023-04-16T13:08:26.225Z,78.10
2023-04-16T13:10:54.671Z,79.90
2023-04-16T13:13:23.793Z,81.10
2023-04-16T13:15:52.490Z,82.70
2023-04-16T13:18:23.316Z,83.30
2023-04-16T13:20:52.024Z,83.50
2023-04-16T13:23:20.750Z,84.00
2023-04-16T13:25:50.650Z,84.80
2023-04-16T13:28:19.924Z,82.90
2023-04-16T13:30:48.402Z,82.20
2023-04-16T13:33:17.153Z,81.20
2023-04-16T13:35:47.994Z,80.60
2023-04-16T13:38:16.485Z,80.00
2023-04-16T13:40:45.458Z,80.50
2023-04-16T13:43:16.555Z,79.80
2023-04-16T13:45:44.993Z,79.90
2023-04-16T13:48:13.502Z,78.10
2023-04-16T13:50:42.431Z,78.50
2023-04-16T13:53:12.252Z,77.90
2023-04-16T13:55:40.878Z,77.90
2023-04-16T13:58:11.536Z,78.00
2023-04-16T14:00:40.171Z,78.70
2023-04-16T14:03:08.711Z,79.20
2023-04-16T14:05:41.562Z,78.00
2023-04-16T14:08:13.179Z,77.70
2023-04-16T14:10:41.836Z,76.40
2023-04-16T14:13:12.510Z,75.30
2023-04-16T14:15:41.315Z,74.60
2023-04-16T14:18:10.120Z,73.40
2023-04-16T14:20:39.878Z,71.50
2023-04-16T14:23:08.831Z,70.80
2023-04-16T14:25:39.370Z,72.50
2023-04-16T14:28:09.023Z,74.50
2023-04-16T14:30:37.612Z,75.70
2023-04-16T14:33:07.715Z,76.30
2023-04-16T14:35:36.446Z,75.70
2023-04-16T14:38:05.088Z,75.00
2023-04-16T14:40:33.682Z,74.70
2023-04-16T14:43:05.220Z,73.90
2023-04-16T14:45:33.773Z,73.30
2023-04-16T14:48:02.203Z,72.30
2023-04-16T14:50:30.968Z,71.00
2023-04-16T14:53:00.011Z,70.00
2023-04-16T14:55:28.571Z,70.50
2023-04-16T14:57:57.550Z,70.00
2023-04-16T15:00:28.122Z,69.70
2023-04-16T15:02:57.522Z,69.50
2023-04-16T15:05:27.267Z,68.40
2023-04-16T15:07:56.311Z,67.80
2023-04-16T15:10:25.101Z,68.90
2023-04-16T15:12:53.679Z,67.60
2023-04-16T15:15:22.395Z,67.70
2023-04-16T15:17:53.562Z,67.60
2023-04-16T15:20:22.250Z,67.10
2023-04-16T15:22:51.712Z,67.20
2023-04-16T15:25:23.530Z,67.40
2023-04-16T15:27:51.980Z,67.40
2023-04-16T15:30:20.676Z,67.50
2023-04-16T15:32:49.161Z,67.10
2023-04-16T15:35:18.989Z,66.50
2023-04-16T15:37:48.022Z,67.30
2023-04-16T15:40:18.851Z,67.20
2023-04-16T15:42:49.651Z,65.90
2023-04-16T15:45:18.768Z,66.30
2023-04-16T15:47:51.146Z,66.00
2023-04-16T15:50:21.373Z,64.90
2023-04-16T15:52:50.242Z,65.40
2023-04-16T15:55:20.337Z,65.40
2023-04-16T15:57:48.942Z,65.40
2023-04-16T16:00:18.943Z,65.00
2023-04-16T16:02:48.331Z,64.70
2023-04-16T16:05:17.684Z,65.60
2023-04-16T16:07:47.492Z,65.90
2023-04-16T16:10:16.081Z,65.90
2023-04-16T16:12:46.993Z,65.90
2023-04-16T16:15:15.482Z,65.50
2023-04-16T16:17:44.344Z,65.50
2023-04-16T16:20:13.077Z,64.90
2023-04-16T16:22:43.156Z,63.70
2023-04-16T16:25:12.977Z,63.30
2023-04-16T16:27:42.205Z,63.50
2023-04-16T16:30:11.714Z,63.60
2023-04-16T16:32:43.029Z,63.90
2023-04-16T16:35:12.830Z,64.40
2023-04-16T16:37:41.413Z,66.10
2023-04-16T16:40:11.196Z,66.30
2023-04-16T16:42:41.180Z,66.50
2023-04-16T16:45:10.948Z,67.00
2023-04-16T16:47:41.861Z,67.00
2023-04-16T16:50:12.465Z,67.20
2023-04-16T16:52:40.965Z,67.20
2023-04-16T16:55:11.171Z,67.60
2023-04-16T16:57:41.314Z,68.50
2023-04-16T17:00:15.437Z,69.30
2023-04-16T17:02:44.421Z,69.30
2023-04-16T17:05:14.254Z,69.30
2023-04-16T17:07:43.109Z,70.60
2023-04-16T17:10:19.861Z,71.10
2023-04-16T17:12:51.128Z,70.80
2023-04-16T17:15:21.779Z,70.40
2023-04-16T17:17:50.614Z,71.50
2023-04-16T17:20:20.218Z,70.50
2023-04-16T17:22:48.694Z,70.50
2023-04-16T17:25:17.075Z,71.80
2023-04-16T17:27:45.571Z,72.60
2023-04-16T17:30:16.287Z,72.70
2023-04-16T17:32:45.512Z,72.70
2023-04-16T17:35:14.063Z,73.00
2023-04-16T17:37:42.785Z,73.10
2023-04-16T17:40:12.718Z,74.30
2023-04-16T17:42:41.319Z,73.60
2023-04-16T17:45:10.544Z,74.00
2023-04-16T17:47:40.656Z,73.60
2023-04-16T17:50:09.935Z,73.10
2023-04-16T17:52:54.706Z,73.80
2023-04-16T17:55:27.048Z,74.00
2023-04-16T17:57:56.000Z,73.30
2023-04-16T18:00:24.511Z,72.90
2023-04-16T18:02:56.710Z,73.70
2023-04-16T18:05:25.859Z,74.40
2023-04-16T18:07:55.447Z,75.20
2023-04-16T18:10:24.598Z,77.10
2023-04-16T18:12:53.016Z,76.30
2023-04-16T18:15:21.766Z,76.40
2023-04-16T18:17:50.454Z,77.60
2023-04-16T18:20:20.677Z,77.80
2023-04-16T18:22:52.580Z,77.90
2023-04-16T18:25:29.939Z,77.90
2023-04-16T18:28:03.881Z,77.90
2023-04-16T18:30:32.554Z,77.80
2023-04-16T18:33:26.328Z,78.80
2023-04-16T18:35:50.869Z,78.00
2023-04-16T18:38:19.241Z,74.80
2023-04-16T18:40:49.686Z,74.30
2023-04-16T18:43:19.052Z,74.30
2023-04-16T18:45:47.405Z,74.00
2023-04-16T18:48:15.764Z,72.60
2023-04-16T18:50:44.226Z,74.70
2023-04-16T18:53:14.137Z,77.30
2023-04-16T18:55:42.753Z,77.80
2023-04-16T18:58:12.161Z,75.60
2023-04-16T19:00:42.382Z,76.50
2023-04-16T19:03:11.628Z,75.90
2023-04-16T19:05:40.083Z,77.30
2023-04-16T19:08:08.980Z,77.70
2023-04-16T19:10:49.916Z,77.40
2023-04-16T19:13:30.272Z,76.60
2023-04-16T19:16:11.729Z,77.90
2023-04-16T19:18:50.674Z,77.80
2023-04-16T19:21:22.619Z,77.80
2023-04-16T19:23:56.141Z,77.80
2023-04-16T19:26:36.004Z,77.90
2023-04-16T19:29:14.405Z,76.50
2023-04-16T19:31:52.852Z,77.00
2023-04-16T19:34:31.295Z,77.20
2023-04-16T19:37:09.661Z,77.20
2023-04-16T19:39:48.057Z,76.40
2023-04-16T19:42:21.687Z,77.10
2023-04-16T19:44:52.836Z,76.10
2023-04-16T19:47:23.233Z,76.10
2023-04-16T19:49:51.724Z,76.90
2023-04-16T19:52:20.190Z,77.40
2023-04-16T19:54:51.943Z,77.90
2023-04-16T19:57:21.683Z,77.80
2023-04-16T19:59:50.218Z,79.10
2023-04-16T20:02:18.573Z,78.80
2023-04-16T20:04:48.434Z,78.80
2023-04-16T20:07:16.818Z,79.00
2023-04-16T20:09:45.126Z,77.50
2023-04-16T20:12:13.395Z,75.20
2023-04-16T20:14:43.978Z,76.60
2023-04-16T20:17:17.667Z,77.90
2023-04-16T20:19:47.271Z,77.90
2023-04-16T20:22:18.238Z,78.10
2023-04-16T20:24:48.218Z,77.90
2023-04-16T20:27:16.901Z,78.30
2023-04-16T20:29:46.616Z,76.50
2023-04-16T20:32:14.945Z,74.80
2023-04-16T20:34:43.294Z,75.10
2023-04-16T20:37:13.243Z,74.50
2023-04-16T20:39:42.507Z,75.20
2023-04-16T20:42:14.732Z,76.90
2023-04-16T20:44:50.371Z,77.70
2023-04-16T20:47:21.912Z,78.50
2023-04-16T20:49:53.018Z,80.00
2023-04-16T20:52:22.270Z,79.60
2023-04-16T20:54:52.065Z,79.70
2023-04-16T20:57:20.672Z,79.30
2023-04-16T20:59:49.117Z,78.50
2023-04-16T21:02:17.606Z,78.80
2023-04-16T21:04:47.730Z,78.80
2023-04-16T21:07:16.154Z,79.20
2023-04-16T21:09:44.614Z,79.40
2023-04-16T21:12:13.072Z,79.10
2023-04-16T21:14:41.466Z,78.40
2023-04-16T21:17:10.185Z,77.70
2023-04-16T21:19:40.334Z,77.80
2023-04-16T21:22:10.071Z,76.40
2023-04-16T21:24:39.007Z,75.80
2023-04-16T21:27:07.344Z,75.80
2023-04-16T21:29:35.913Z,75.00
2023-04-16T21:32:04.177Z,73.70
2023-04-16T21:34:32.775Z,73.40
2023-04-16T21:37:01.987Z,73.50
2023-04-16T21:39:32.709Z,74.30
2023-04-16T21:42:01.859Z,73.40
2023-04-16T21:44:30.447Z,73.40
2023-04-16T21:46:58.884Z,75.30
2023-04-16T21:49:27.219Z,76.50
2023-04-16T21:51:59.194Z,77.50
2023-04-16T21:54:31.677Z,77.60
2023-04-16T21:57:00.002Z,78.20
2023-04-16T21:59:28.637Z,78.80
2023-04-16T22:01:57.317Z,78.70
2023-04-16T22:04:26.600Z,77.70
2023-04-16T22:06:56.312Z,76.70
2023-04-16T22:09:25.883Z,77.30
2023-04-16T22:11:57.734Z,77.60
2023-04-16T22:14:26.132Z,78.60
2023-04-16T22:16:55.136Z,77.10
2023-04-16T22:19:23.742Z,76.80
2023-04-16T22:21:52.590Z,75.20
2023-04-16T22:24:20.920Z,74.00
2023-04-16T22:26:49.340Z,76.50
2023-04-16T22:29:19.052Z,77.60
2023-04-16T22:31:47.675Z,77.70
2023-04-16T22:34:16.019Z,77.60
2023-04-16T22:36:44.437Z,77.60
2023-04-16T22:39:13.261Z,76.70
2023-04-16T22:41:42.563Z,75.10
2023-04-16T22:44:10.885Z,77.60
2023-04-16T22:46:40.868Z,76.80
2023-04-16T22:49:09.364Z,75.00
2023-04-16T22:51:38.345Z,73.50
2023-04-16T22:54:09.139Z,73.40
2023-04-16T22:56:38.922Z,75.10
2023-04-16T22:59:08.021Z,76.30
2023-04-16T23:01:37.205Z,76.70
2023-04-16T23:04:07.108Z,76.70
2023-04-16T23:06:35.950Z,76.10
2023-04-16T23:09:05.963Z,76.10
2023-04-16T23:11:34.504Z,77.40
2023-04-16T23:14:04.575Z,76.40
2023-04-16T23:16:33.071Z,76.20
2023-04-16T23:19:01.693Z,75.40
2023-04-16T23:21:31.433Z,75.90
2023-04-16T23:24:00.155Z,75.50
2023-04-16T23:26:29.712Z,75.80
2023-04-16T23:28:58.152Z,77.30
2023-04-16T23:31:26.743Z,77.60
2023-04-16T23:33:55.203Z,78.40
2023-04-16T23:36:23.562Z,80.30
2023-04-16T23:38:53.154Z,79.80
2023-04-16T23:41:23.246Z,79.30
2023-04-16T23:43:52.064Z,78.60
2023-04-16T23:46:20.566Z,79.00
2023-04-16T23:48:49.045Z,78.50
2023-04-16T23:51:17.489Z,76.90
2023-04-16T23:53:45.735Z,75.00
2023-04-16T23:56:15.942Z,73.70
2023-04-16T23:58:44.370Z,71.90
